Time;durP1;ratioP1;P1;durP2;ratioP2;P2;SDS_P1;SDS_P2;PMS_P1;PMS_P2;Temp;Humidity;BMP_temperature;BMP_pressure;BME280_temperature;BME280_humidity;BME280_pressure;Samples;Min_cycle;Max_cycle;Signal;HPM_P1;HPM_P2
2022/02/24 00:00:19;;;;;;;6.53;4.83;;;;;;;3.58;78.77;99867.80;1736527;81;22234;-57
2022/02/24 00:02:45;;;;;;;7.83;3.67;;;;;;;3.57;78.74;99867.41;1735400;81;20945;-57
2022/02/24 00:05:12;;;;;;;8.70;5.17;;;;;;;3.55;78.73;99869.20;1737886;81;20970;-57
2022/02/24 00:07:39;;;;;;;8.83;4.90;;;;;;;3.54;78.71;99867.45;1732984;81;21092;-56
2022/02/24 00:10:08;;;;;;;7.70;3.73;;;;;;;3.54;78.69;99863.45;1734153;81;21506;-57
2022/02/24 00:12:37;;;;;;;5.63;3.30;;;;;;;3.55;78.65;99870.54;1739668;81;21319;-57
2022/02/24 00:15:05;;;;;;;6.67;3.13;;;;;;;3.54;78.68;99871.44;1737640;81;20929;-56
2022/02/24 00:17:32;;;;;;;6.23;2.40;;;;;;;3.52;78.73;99871.91;1735623;81;20921;-57
2022/02/24 00:19:59;;;;;;;4.20;3.50;;;;;;;3.54;78.78;99873.22;1736070;81;21083;-57
2022/02/24 00:22:26;;;;;;;6.53;3.43;;;;;;;3.51;78.78;99871.48;1731577;81;21392;-57
2022/02/24 00:24:53;;;;;;;8.77;4.33;;;;;;;3.50;78.85;99879.03;1733494;81;20945;-56
2022/02/24 00:27:20;;;;;;;10.70;4.20;;;;;;;3.49;78.90;99875.95;1732668;81;21767;-57
2022/02/24 00:29:47;;;;;;;8.23;4.53;;;;;;;3.49;78.91;99879.09;1744704;80;21128;-57
2022/02/24 00:32:13;;;;;;;6.87;4.57;;;;;;;3.49;78.97;99877.28;1722691;81;21147;-56
2022/02/24 00:34:39;;;;;;;10.70;4.77;;;;;;;3.49;78.99;99877.28;1732978;80;21131;-57
2022/02/24 00:37:06;;;;;;;9.37;4.93;;;;;;;3.48;78.96;99883.53;1753875;80;21116;-56
2022/02/24 00:39:32;;;;;;;4.97;3.97;;;;;;;3.47;79.00;99884.44;1755993;79;21143;-56
2022/02/24 00:41:58;;;;;;;9.00;4.07;;;;;;;3.48;79.00;99885.31;1756660;79;21127;-57
2022/02/24 00:44:25;;;;;;;9.87;4.33;;;;;;;3.49;79.02;99887.92;1746237;80;22322;-57
2022/02/24 00:46:51;;;;;;;10.57;4.63;;;;;;;3.51;79.10;99887.45;1744270;80;21352;-58
2022/02/24 00:49:20;;;;;;;8.23;4.47;;;;;;;3.52;79.06;99887.88;1754990;79;21107;-57
2022/02/24 00:51:46;;;;;;;6.67;4.30;;;;;;;3.54;79.11;99896.72;1757774;79;20934;-57
2022/02/24 00:54:14;;;;;;;7.73;4.83;;;;;;;3.57;79.17;99889.15;1747607;80;21067;-57
2022/02/24 00:56:40;;;;;;;9.07;4.67;;;;;;;3.56;79.06;99898.91;1775294;78;21607;-57
2022/02/24 00:59:07;;;;;;;9.07;4.10;;;;;;;3.56;79.08;99896.70;1777888;78;21069;-57
2022/02/24 01:01:33;;;;;;;9.70;4.47;;;;;;;3.56;79.07;99903.36;1777187;78;21115;-57
2022/02/24 01:04:00;;;;;;;7.80;5.80;;;;;;;3.54;79.11;99908.70;1777404;78;21040;-56
2022/02/24 01:06:26;;;;;;;5.97;4.67;;;;;;;3.53;79.15;99904.28;1741461;80;22477;-57
2022/02/24 01:08:52;;;;;;;8.87;3.03;;;;;;;3.54;79.18;99911.81;1738870;80;21134;-57
2022/02/24 01:11:19;;;;;;;6.60;3.73;;;;;;;3.56;79.19;99910.02;1733513;80;21065;-61
2022/02/24 01:13:46;;;;;;;13.27;3.67;;;;;;;3.57;79.20;99911.77;1754496;79;21104;-57
2022/02/24 01:16:12;;;;;;;5.90;3.10;;;;;;;3.56;79.19;99911.34;1753460;79;21592;-56
2022/02/24 01:18:39;;;;;;;6.73;3.60;;;;;;;3.56;79.27;99914.89;1753762;79;21033;-56
2022/02/24 01:21:05;;;;;;;6.50;3.40;;;;;;;3.55;79.30;99914.45;1754578;79;21111;-56
2022/02/24 01:23:32;;;;;;;12.03;5.00;;;;;;;3.56;79.42;99911.34;1755750;79;21132;-57
2022/02/24 01:25:58;;;;;;;7.23;3.83;;;;;;;3.57;79.45;99917.09;1753601;80;21060;-57
2022/02/24 01:28:24;;;;;;;7.00;4.47;;;;;;;3.57;79.48;99909.99;1754098;80;21073;-56
2022/02/24 01:30:51;;;;;;;6.10;4.60;;;;;;;3.59;79.45;99912.15;1754441;79;21029;-57
2022/02/24 01:33:18;;;;;;;8.90;5.33;;;;;;;3.60;79.43;99905.92;1754840;79;21177;-57
2022/02/24 01:35:45;;;;;;;7.17;4.50;;;;;;;3.57;79.42;99909.99;1738329;80;21477;-58
2022/02/24 01:38:11;;;;;;;8.97;5.40;;;;;;;3.57;79.39;99907.33;1767801;79;21154;-58
2022/02/24 01:40:37;;;;;;;9.20;4.57;;;;;;;3.56;79.41;99914.89;1765017;79;21057;-58
2022/02/24 01:43:04;;;;;;;6.40;3.20;;;;;;;3.56;79.46;99915.33;1765033;79;21379;-58
2022/02/24 01:45:31;;;;;;;5.37;3.40;;;;;;;3.56;79.57;99912.22;1766601;79;23161;-57
2022/02/24 01:47:58;;;;;;;8.17;3.77;;;;;;;3.57;79.58;99917.98;1765515;79;21072;-57
2022/02/24 01:50:26;;;;;;;10.40;4.00;;;;;;;3.57;79.68;99920.64;1769236;79;22440;-56
2022/02/24 01:52:52;;;;;;;7.50;5.30;;;;;;;3.58;79.68;99913.05;1769124;79;20922;-56
2022/02/24 01:55:19;;;;;;;7.67;4.93;;;;;;;3.57;79.58;99917.98;1766141;79;21068;-57
2022/02/24 01:57:46;;;;;;;8.50;5.67;;;;;;;3.57;79.58;99919.75;1766315;79;21151;-57
2022/02/24 02:00:14;;;;;;;7.90;5.07;;;;;;;3.55;79.58;99925.10;1764821;79;21076;-57
2022/02/24 02:02:42;;;;;;;6.50;4.90;;;;;;;3.52;79.57;99931.80;1766318;79;22062;-57
2022/02/24 02:05:08;;;;;;;7.37;4.07;;;;;;;3.50;79.59;99932.27;1762809;79;21641;-56
2022/02/24 02:07:35;;;;;;;5.27;3.17;;;;;;;3.50;79.63;99930.94;1763158;79;21040;-58
2022/02/24 02:10:03;;;;;;;10.90;4.10;;;;;;;3.51;79.70;99937.14;1766960;79;21550;-53
2022/02/24 02:12:30;;;;;;;5.67;3.73;;;;;;;3.52;79.75;99942.44;1709165;82;20954;-56
2022/02/24 02:14:59;;;;;;;8.87;3.83;;;;;;;3.55;79.74;99946.84;1730630;80;21136;-57
2022/02/24 02:17:26;;;;;;;6.47;3.50;;;;;;;3.54;79.76;99941.97;1728291;80;21288;-56
2022/02/24 02:19:52;;;;;;;9.07;4.13;;;;;;;3.55;79.84;99942.40;1726631;80;21072;-57
2022/02/24 02:22:18;;;;;;;5.33;4.63;;;;;;;3.57;79.92;99944.59;1726744;80;21866;-54
2022/02/24 02:25:02;;;;;;;10.90;4.90;;;;;;;3.58;79.89;99950.77;1724985;80;21474;-54
2022/02/24 02:27:28;;;;;;;6.40;5.77;;;;;;;3.59;79.91;99951.19;1728212;80;21088;-53
2022/02/24 02:29:54;;;;;;;11.53;6.10;;;;;;;3.59;79.84;99956.52;1728101;80;21075;-55
2022/02/24 02:32:20;;;;;;;12.77;7.07;;;;;;;3.56;79.82;99961.46;1727085;80;21079;-55
2022/02/24 02:34:47;;;;;;;9.67;5.83;;;;;;;3.55;79.87;99961.03;1727529;80;21655;-54
2022/02/24 02:37:13;;;;;;;10.53;5.00;;;;;;;3.55;79.84;99971.67;1782475;78;21127;-56
2022/02/24 02:39:40;;;;;;;8.00;5.30;;;;;;;3.56;79.89;99968.56;1783737;78;21075;-54
2022/02/24 02:42:07;;;;;;;9.27;5.17;;;;;;;3.55;79.94;99969.02;1780995;78;21097;-54
2022/02/24 02:44:33;;;;;;;11.50;6.07;;;;;;;3.56;79.99;99970.78;1784401;78;21378;-53
2022/02/24 02:47:00;;;;;;;7.23;5.03;;;;;;;3.58;79.98;99974.72;1783163;78;21099;-56
2022/02/24 02:49:26;;;;;;;11.17;6.43;;;;;;;3.58;80.10;99979.59;1785094;78;20911;-56
2022/02/24 02:51:52;;;;;;;6.20;5.23;;;;;;;3.59;80.10;99989.79;1768209;79;21014;-56
2022/02/24 02:54:20;;;;;;;8.83;6.30;;;;;;;3.59;80.07;99987.13;1781968;78;21857;-56
2022/02/24 02:56:48;;;;;;;10.40;6.83;;;;;;;3.57;80.05;99977.86;1780377;78;20887;-55
2022/02/24 02:59:17;;;;;;;7.80;5.47;;;;;;;3.56;80.07;99983.20;1783503;78;21115;-55
2022/02/24 03:01:51;;;;;;;8.13;5.27;;;;;;;3.54;80.07;99994.32;1764775;79;21538;-56
2022/02/24 03:04:18;;;;;;;8.70;5.42;;;;;;;3.52;80.09;99991.68;1765647;79;21440;-55
2022/02/24 03:06:45;;;;;;;8.17;5.07;;;;;;;3.51;80.12;99993.91;1765247;79;20921;-55
2022/02/24 03:09:11;;;;;;;7.67;4.67;;;;;;;3.53;80.18;99993.89;1766371;79;21948;-54
2022/02/24 03:11:37;;;;;;;9.60;3.77;;;;;;;3.53;80.21;100000.55;1768491;79;21104;-56
2022/02/24 03:14:04;;;;;;;8.70;4.93;;;;;;;3.55;80.27;100004.06;1768551;79;21037;-53
2022/02/24 03:16:30;;;;;;;6.83;4.83;;;;;;;3.56;80.31;100002.72;1766823;79;21000;-54
2022/02/24 03:18:56;;;;;;;7.87;5.53;;;;;;;3.57;80.31;100000.48;1767139;79;20890;-55
2022/02/24 03:21:23;;;;;;;9.63;5.70;;;;;;;3.57;80.30;100005.81;1764943;79;20981;-54
2022/02/24 03:23:49;;;;;;;11.27;5.40;;;;;;;3.59;80.25;100011.08;1766493;79;21216;-55
2022/02/24 03:26:17;;;;;;;8.10;5.67;;;;;;;3.58;80.27;100006.20;1746860;80;20910;-56
2022/02/24 03:28:43;;;;;;;8.93;6.07;;;;;;;3.57;80.20;100010.25;1747057;80;20918;-55
2022/02/24 03:31:10;;;;;;;8.57;5.23;;;;;;;3.55;80.24;100008.06;1743302;80;20926;-54
2022/02/24 03:33:37;;;;;;;7.40;5.17;;;;;;;3.54;80.24;100007.18;1750850;80;20964;-56
2022/02/24 03:36:04;;;;;;;11.53;5.17;;;;;;;3.55;80.23;100004.95;1747717;80;21094;-54
2022/02/24 03:38:30;;;;;;;7.47;4.47;;;;;;;3.55;80.21;100012.94;1751018;80;20883;-54
2022/02/24 03:40:57;;;;;;;6.23;4.20;;;;;;;3.56;80.23;100013.81;1762199;79;21045;-54
2022/02/24 03:43:23;;;;;;;6.77;4.43;;;;;;;3.56;80.30;100013.36;1738048;80;21519;-54
2022/02/24 03:45:50;;;;;;;8.53;5.00;;;;;;;3.57;80.34;100012.47;1781104;78;21069;-55
2022/02/24 03:48:18;;;;;;;7.20;5.27;;;;;;;3.60;80.34;100009.73;1784867;78;21592;-55
2022/02/24 03:50:44;;;;;;;9.73;5.80;;;;;;;3.62;80.24;100012.38;1780605;79;21068;-56
2022/02/24 03:53:11;;;;;;;8.63;6.50;;;;;;;3.63;80.19;100013.69;1753634;80;21116;-57
2022/02/24 03:55:38;;;;;;;6.97;6.10;;;;;;;3.64;80.09;100007.91;1755037;79;21199;-56
2022/02/24 03:58:04;;;;;;;11.40;6.80;;;;;;;3.64;79.98;100013.23;1738002;80;21600;-57
2022/02/24 04:00:31;;;;;;;8.80;6.90;;;;;;;3.62;79.93;100012.38;1746455;80;23078;-57
2022/02/24 04:02:58;;;;;;;10.20;7.53;;;;;;;3.60;79.85;100012.39;1750640;80;22474;-55
2022/02/24 04:05:24;;;;;;;10.40;5.77;;;;;;;3.59;79.80;100014.63;1752405;79;21768;-56
2022/02/24 04:07:52;;;;;;;5.33;4.80;;;;;;;3.59;79.59;100023.06;1745432;80;21073;-55
2022/02/24 04:10:18;;;;;;;5.33;4.83;;;;;;;3.57;79.53;100024.89;1741915;80;21067;-55
2022/02/24 04:12:45;;;;;;;5.30;4.63;;;;;;;3.55;79.55;100030.69;1779999;78;22902;-57
2022/02/24 04:15:11;;;;;;;4.60;4.13;;;;;;;3.54;79.56;100028.92;1759934;80;21096;-55
2022/02/24 04:17:38;;;;;;;6.03;4.30;;;;;;;3.52;79.66;100036.92;1745561;80;21101;-56
2022/02/24 04:20:07;;;;;;;7.57;4.93;;;;;;;3.52;79.78;100040.91;1777121;78;21084;-56
2022/02/24 04:22:34;;;;;;;8.20;5.63;;;;;;;3.54;79.92;100042.23;1762682;80;21093;-56
2022/02/24 04:25:01;;;;;;;9.97;6.73;;;;;;;3.55;79.94;100045.32;1760778;79;22455;-55
2022/02/24 04:27:27;;;;;;;9.03;7.37;;;;;;;3.55;79.89;100051.53;1758896;79;21155;-57
2022/02/24 04:29:53;;;;;;;9.93;6.77;;;;;;;3.54;79.87;100051.09;1776899;79;21166;-56
2022/02/24 04:32:20;;;;;;;11.17;8.20;;;;;;;3.53;79.80;100062.64;1773757;78;21866;-54
2022/02/24 04:34:46;;;;;;;9.23;6.80;;;;;;;3.50;79.85;100068.00;1752050;80;21107;-57
2022/02/24 04:37:12;;;;;;;11.07;7.23;;;;;;;3.47;79.83;100073.39;1750619;80;22864;-56
2022/02/24 04:39:39;;;;;;;10.23;5.60;;;;;;;3.47;79.88;100080.04;1751389;80;21676;-57
2022/02/24 04:42:05;;;;;;;9.57;6.23;;;;;;;3.46;79.96;100082.27;1752797;80;21072;-56
2022/02/24 04:44:32;;;;;;;11.83;6.20;;;;;;;3.46;80.06;100080.94;1753823;80;21053;-55
2022/02/24 04:46:58;;;;;;;10.27;6.80;;;;;;;3.47;80.10;100088.02;1746252;80;21042;-55
2022/02/24 04:49:24;;;;;;;8.57;6.03;;;;;;;3.47;80.10;100092.02;1736530;80;23325;-55
2022/02/24 04:51:50;;;;;;;9.67;6.53;;;;;;;3.49;80.17;100098.66;1773406;79;21447;-55
2022/02/24 04:54:17;;;;;;;9.83;6.93;;;;;;;3.49;80.24;100099.98;1752105;80;21116;-56
2022/02/24 04:56:43;;;;;;;9.67;7.03;;;;;;;3.49;80.21;100111.48;1751322;79;21064;-55
2022/02/24 04:59:10;;;;;;;12.43;8.07;;;;;;;3.48;80.23;100107.09;1786811;79;21028;-55
2022/02/24 05:01:36;;;;;;;10.30;8.00;;;;;;;3.48;80.24;100116.84;1776946;78;21116;-58
2022/02/24 05:04:03;;;;;;;7.67;6.90;;;;;;;3.45;80.27;100116.43;1747572;80;21096;-57
2022/02/24 05:06:29;;;;;;;8.77;6.80;;;;;;;3.46;80.31;100119.97;1743480;80;21041;-56
2022/02/24 05:08:55;;;;;;;9.77;6.50;;;;;;;3.47;80.37;100123.95;1750556;79;21780;-56
2022/02/24 05:11:22;;;;;;;7.30;6.10;;;;;;;3.47;80.40;100127.94;1752569;80;21069;-55
2022/02/24 05:13:48;;;;;;;8.73;4.97;;;;;;;3.48;80.45;100134.15;1752484;80;21577;-54
2022/02/24 05:16:14;;;;;;;8.47;6.17;;;;;;;3.49;80.47;100131.44;1752417;80;22782;-55
2022/02/24 05:18:41;;;;;;;8.20;7.47;;;;;;;3.51;80.51;100133.64;1750546;79;21431;-55
2022/02/24 05:21:07;;;;;;;8.13;6.73;;;;;;;3.54;80.57;100142.04;1750966;79;21076;-55
2022/02/24 05:23:34;;;;;;;7.43;6.57;;;;;;;3.59;80.59;100145.05;1750773;79;21112;-55
2022/02/24 05:26:00;;;;;;;10.40;8.43;;;;;;;3.62;80.57;100152.13;1750599;80;22233;-54
2022/02/24 05:28:26;;;;;;;10.70;8.67;;;;;;;3.63;80.51;100153.45;1750208;80;21395;-54
2022/02/24 05:30:58;;;;;;;9.77;8.87;;;;;;;3.62;80.44;100161.00;1753657;79;21401;-57
2022/02/24 05:33:21;;;;;;;10.10;9.07;;;;;;;3.61;80.42;100165.01;1751824;79;21113;-56
2022/02/24 05:35:47;;;;;;;10.93;9.13;;;;;;;3.58;80.47;100162.37;1750698;80;21179;-55
2022/02/24 05:38:13;;;;;;;12.47;9.00;;;;;;;3.57;80.47;100174.83;1724613;80;21081;-54
2022/02/24 05:40:40;;;;;;;9.20;7.90;;;;;;;3.57;80.47;100177.50;1724160;81;21668;-54
2022/02/24 05:43:06;;;;;;;10.97;9.00;;;;;;;3.59;80.57;100187.65;1774591;79;21688;-55
2022/02/24 05:45:33;;;;;;;10.77;7.27;;;;;;;3.61;80.67;100191.62;1779977;79;21445;-56
2022/02/24 05:47:59;;;;;;;10.37;7.30;;;;;;;3.62;80.71;100190.28;1779640;79;20945;-55
2022/02/24 05:50:27;;;;;;;10.10;8.03;;;;;;;3.64;80.70;100191.15;1777779;79;21407;-54
2022/02/24 05:52:53;;;;;;;10.53;8.53;;;;;;;3.67;80.70;100200.41;1778176;78;20909;-55
2022/02/24 05:55:19;;;;;;;9.90;8.60;;;;;;;3.70;80.76;100199.49;1708974;82;21044;-55
2022/02/24 05:57:46;;;;;;;9.87;8.47;;;;;;;3.72;80.75;100203.02;1741028;80;21014;-56
2022/02/24 06:00:13;;;;;;;10.23;8.17;;;;;;;3.73;80.69;100202.13;1741679;80;21044;-55
2022/02/24 06:02:41;;;;;;;12.20;8.53;;;;;;;3.73;80.67;100206.13;1737844;80;21516;-55
2022/02/24 06:05:08;;;;;;;8.40;7.23;;;;;;;3.71;80.62;100215.45;1736282;80;21010;-55
2022/02/24 06:07:34;;;;;;;8.60;5.97;;;;;;;3.70;80.62;100223.00;1737215;82;20933;-54
2022/02/24 06:10:00;;;;;;;5.27;4.63;;;;;;;3.71;80.58;100227.88;1737353;80;20934;-55
2022/02/24 06:12:27;;;;;;;5.53;4.40;;;;;;;3.71;80.60;100225.22;1781747;78;21021;-55
2022/02/24 06:14:53;;;;;;;5.97;4.60;;;;;;;3.72;80.57;100225.20;1779220;78;20919;-55
2022/02/24 06:17:20;;;;;;;4.67;4.27;;;;;;;3.73;80.56;100233.63;1783090;78;21380;-54
2022/02/24 06:19:46;;;;;;;4.07;3.50;;;;;;;3.74;80.56;100236.69;1778273;79;21009;-55
2022/02/24 06:22:12;;;;;;;4.27;3.87;;;;;;;3.75;80.52;100238.45;1711449;81;20960;-55
2022/02/24 06:24:39;;;;;;;5.17;4.20;;;;;;;3.78;80.50;100237.55;1741768;80;21457;-55
2022/02/24 06:27:05;;;;;;;5.37;4.63;;;;;;;3.79;80.38;100242.86;1742975;81;21406;-55
2022/02/24 06:29:31;;;;;;;3.97;3.67;;;;;;;3.77;80.33;100241.98;1727090;82;21009;-55
2022/02/24 06:31:58;;;;;;;5.27;4.37;;;;;;;3.76;80.30;100245.55;1729002;81;20918;-55
2022/02/24 06:34:24;;;;;;;4.00;3.47;;;;;;;3.74;80.22;100241.17;1776438;79;21084;-55
2022/02/24 06:36:50;;;;;;;5.63;3.63;;;;;;;3.76;80.30;100252.66;1773245;78;21068;-54
2022/02/24 06:39:17;;;;;;;3.63;2.97;;;;;;;3.77;80.29;100253.09;1775439;79;22617;-55
2022/02/24 06:41:43;;;;;;;3.70;2.60;;;;;;;3.80;80.27;100255.72;1777442;78;21057;-54
2022/02/24 06:44:09;;;;;;;3.67;2.43;;;;;;;3.81;80.19;100257.48;1777942;78;21513;-57
2022/02/24 06:46:37;;;;;;;3.93;3.33;;;;;;;3.80;80.22;100266.38;1748108;80;21187;-55
2022/02/24 06:49:03;;;;;;;4.60;3.27;;;;;;;3.83;80.25;100270.31;1745512;80;21472;-55
2022/02/24 06:51:30;;;;;;;4.70;3.60;;;;;;;3.84;80.14;100269.41;1772498;78;21594;-56
2022/02/24 06:53:57;;;;;;;4.10;3.70;;;;;;;3.83;80.05;100268.98;1775794;78;21503;-56
2022/02/24 06:56:26;;;;;;;8.00;3.57;;;;;;;3.82;80.05;100277.02;1750151;80;21687;-56
2022/02/24 06:58:52;;;;;;;4.63;3.40;;;;;;;3.80;80.06;100273.03;1744845;80;21183;-55
2022/02/24 07:01:19;;;;;;;5.87;3.47;;;;;;;3.79;80.02;100273.92;1751681;80;21425;-54
2022/02/24 07:03:45;;;;;;;5.47;3.47;;;;;;;3.79;80.05;100276.14;1777935;78;21554;-57
2022/02/24 07:06:11;;;;;;;3.70;2.90;;;;;;;3.79;80.12;100274.81;1779973;78;21566;-54
2022/02/24 07:08:39;;;;;;;3.23;2.60;;;;;;;3.83;80.18;100284.11;1782355;78;21652;-56
2022/02/24 07:11:06;;;;;;;4.10;3.40;;;;;;;3.88;80.25;100287.13;1754832;79;21527;-56
2022/02/24 07:13:33;;;;;;;6.03;3.63;;;;;;;3.94;80.31;100291.03;1757344;79;20993;-55
2022/02/24 07:16:00;;;;;;;4.20;3.80;;;;;;;3.99;80.22;100293.21;1755182;80;21108;-56
2022/02/24 07:18:26;;;;;;;4.57;3.97;;;;;;;4.03;80.19;100295.36;1754426;79;21355;-56
2022/02/24 07:20:52;;;;;;;5.33;4.27;;;;;;;4.05;80.12;100300.23;1752941;79;21434;-55
2022/02/24 07:23:21;;;;;;;6.97;4.73;;;;;;;4.04;79.90;100303.79;1752131;80;21486;-56
2022/02/24 07:25:47;;;;;;;6.27;4.17;;;;;;;4.01;79.88;100308.70;1751144;80;21073;-56
2022/02/24 07:28:13;;;;;;;5.53;4.37;;;;;;;4.01;79.74;100305.16;1752942;80;21093;-56
2022/02/24 07:30:40;;;;;;;3.97;3.50;;;;;;;4.02;79.75;100308.25;1746356;80;21070;-56
2022/02/24 07:33:06;;;;;;;3.83;3.50;;;;;;;4.03;79.77;100318.01;1775295;78;21060;-55
2022/02/24 07:35:33;;;;;;;3.50;3.23;;;;;;;4.04;79.69;100317.11;1776747;78;21140;-54
2022/02/24 07:37:59;;;;;;;5.17;3.47;;;;;;;4.06;79.61;100321.98;1775891;78;21060;-55
2022/02/24 07:40:25;;;;;;;6.77;4.80;;;;;;;4.08;79.67;100323.70;1774211;79;21768;-57
2022/02/24 07:42:52;;;;;;;8.57;4.93;;;;;;;4.10;79.55;100326.34;1778202;79;21057;-56
2022/02/24 07:45:18;;;;;;;7.27;5.70;;;;;;;4.11;79.57;100329.45;1779130;78;21420;-56
2022/02/24 07:47:44;;;;;;;7.17;6.23;;;;;;;4.13;79.43;100336.98;1750142;80;21092;-55
2022/02/24 07:50:13;;;;;;;6.70;5.90;;;;;;;4.11;79.30;100335.66;1776559;78;21574;-55
2022/02/24 07:52:43;;;;;;;8.27;5.70;;;;;;;4.10;79.33;100333.00;1776806;79;21148;-57
2022/02/24 07:55:13;;;;;;;6.37;5.33;;;;;;;4.09;79.29;100339.23;1775448;79;21577;-54
2022/02/24 07:57:41;;;;;;;5.30;4.83;;;;;;;4.08;79.23;100338.83;1774077;78;21100;-57
2022/02/24 08:00:13;;;;;;;4.60;4.20;;;;;;;4.09;79.31;100341.89;1776293;78;21068;-56
2022/02/24 08:02:38;;;;;;;4.03;3.73;;;;;;;4.11;79.25;100342.77;1776749;78;22329;-55
2022/02/24 08:05:05;;;;;;;4.40;3.97;;;;;;;4.13;79.25;100348.52;1774137;78;21120;-58
2022/02/24 08:07:33;;;;;;;4.30;3.90;;;;;;;4.14;79.25;100354.73;1776772;78;21091;-55
2022/02/24 08:09:59;;;;;;;5.00;4.50;;;;;;;4.17;79.35;100357.33;1777308;79;21088;-55
2022/02/24 08:12:44;;;;;;;6.13;5.50;;;;;;;4.20;79.30;100358.64;1742950;80;21139;-55
2022/02/24 08:15:21;;;;;;;5.58;4.45;;;;;;;4.23;79.25;100354.61;1775897;79;21393;-54
2022/02/24 08:17:49;;;;;;;4.77;4.33;;;;;;;4.24;79.00;100360.83;1777171;78;21097;-56
2022/02/24 08:20:16;;;;;;;3.20;2.73;;;;;;;4.19;78.81;100367.08;1776443;78;21103;-57
2022/02/24 08:22:53;;;;;;;3.47;2.43;;;;;;;4.16;78.89;100368.92;1744003;80;21076;-56
2022/02/24 08:25:18;;;;;;;3.20;2.57;;;;;;;4.15;78.86;100372.48;1774382;78;21100;-55
2022/02/24 08:27:44;;;;;;;2.90;2.20;;;;;;;4.14;79.03;100368.05;1777131;78;21096;-57
2022/02/24 08:30:14;;;;;;;3.20;2.90;;;;;;;4.20;79.03;100367.96;1779042;78;21079;-56
2022/02/24 08:32:41;;;;;;;4.40;3.30;;;;;;;4.25;78.82;100375.47;1763208;80;21064;-55
2022/02/24 08:35:09;;;;;;;5.00;3.77;;;;;;;4.27;78.62;100369.64;1764830;79;21072;-55
2022/02/24 08:37:36;;;;;;;3.93;3.17;;;;;;;4.26;78.56;100364.33;1782647;78;21009;-55
2022/02/24 08:40:04;;;;;;;4.17;3.77;;;;;;;4.27;78.67;100366.09;1765379;79;21057;-54
2022/02/24 08:42:31;;;;;;;3.60;3.30;;;;;;;4.29;78.74;100374.51;1770317;79;21132;-55
2022/02/24 08:44:57;;;;;;;3.73;3.27;;;;;;;4.32;78.62;100369.16;1757471;80;21034;-55
2022/02/24 08:47:23;;;;;;;3.93;2.77;;;;;;;4.36;78.57;100372.64;1747792;80;21143;-56
2022/02/24 08:49:51;;;;;;;2.90;2.67;;;;;;;4.39;78.64;100379.27;1760430;79;21064;-57
2022/02/24 08:52:17;;;;;;;3.77;3.43;;;;;;;4.43;78.19;100375.20;1787891;78;21697;-54
2022/02/24 08:54:44;;;;;;;3.17;2.47;;;;;;;4.44;78.08;100374.30;1766728;79;21090;-56
2022/02/24 08:57:10;;;;;;;3.50;2.77;;;;;;;4.49;78.21;100368.92;1786828;78;21824;-56
2022/02/24 08:59:37;;;;;;;3.50;3.03;;;;;;;4.56;78.16;100366.59;1759038;79;21642;-55
2022/02/24 09:02:03;;;;;;;3.23;2.93;;;;;;;4.62;77.90;100367.83;1753387;80;21617;-56
2022/02/24 09:04:30;;;;;;;4.33;3.43;;;;;;;4.67;77.72;100367.78;1765424;79;21495;-57
2022/02/24 09:06:56;;;;;;;4.43;3.40;;;;;;;4.72;77.58;100371.25;1764005;79;21586;-56
2022/02/24 09:09:26;;;;;;;2.27;2.10;;;;;;;4.77;77.40;100367.60;1764742;79;21110;-56
2022/02/24 09:11:53;;;;;;;1.80;1.70;;;;;;;4.81;77.16;100375.12;1763328;79;21239;-56
2022/02/24 09:14:20;;;;;;;3.77;3.47;;;;;;;4.84;76.78;100375.08;1766163;79;21382;-56
2022/02/24 09:16:46;;;;;;;3.17;2.90;;;;;;;4.87;76.52;100372.34;1754153;80;21500;-57
2022/02/24 09:19:13;;;;;;;2.80;1.97;;;;;;;4.91;76.24;100375.41;1790913;78;21752;-55
2022/02/24 09:21:39;;;;;;;2.63;2.40;;;;;;;4.94;75.97;100374.89;1762830;79;21986;-55
2022/02/24 09:24:06;;;;;;;3.97;3.43;;;;;;;4.97;75.68;100373.09;1760211;79;21036;-56
2022/02/24 09:26:33;;;;;;;3.27;2.57;;;;;;;4.99;75.62;100373.50;1784572;78;21264;-56
2022/02/24 09:29:01;;;;;;;3.17;1.80;;;;;;;5.03;75.53;100368.53;1763210;79;20886;-55
2022/02/24 09:31:27;;;;;;;2.40;1.67;;;;;;;5.06;75.04;100372.50;1762549;79;22502;-56
2022/02/24 09:33:53;;;;;;;2.30;1.10;;;;;;;5.06;74.89;100375.61;1792037;78;20945;-54
2022/02/24 09:36:21;;;;;;;1.90;1.10;;;;;;;5.06;74.51;100375.61;1789460;78;20914;-56
2022/02/24 09:38:47;;;;;;;2.23;1.33;;;;;;;5.06;73.74;100368.50;1784091;78;20953;-55
2022/02/24 09:41:14;;;;;;;1.90;1.43;;;;;;;5.06;73.71;100367.16;1782966;78;20977;-56
2022/02/24 09:43:41;;;;;;;3.27;1.37;;;;;;;5.08;73.76;100371.14;1784095;78;21775;-55
2022/02/24 09:46:10;;;;;;;2.60;1.70;;;;;;;5.10;73.48;100369.34;1777382;78;21669;-57
2022/02/24 09:48:41;;;;;;;3.53;1.70;;;;;;;5.11;73.45;100373.29;1779228;78;21519;-53
2022/02/24 09:52:34;;;;;;;3.17;2.67;;;;;;;5.15;73.15;100367.46;1858682;75;26840;-54
2022/02/24 09:55:00;;;;;;;5.53;2.20;;;;;;;5.06;73.01;100375.61;1832468;77;21072;-55
2022/02/24 09:57:26;;;;;;;2.93;2.10;;;;;;;5.01;73.00;100369.03;1812645;77;21138;-57
2022/02/24 09:59:53;;;;;;;3.60;1.77;;;;;;;4.99;73.06;100370.84;1810245;77;21024;-55
2022/02/24 10:02:20;;;;;;;2.67;1.80;;;;;;;4.99;72.85;100370.84;1807499;77;20996;-55
2022/02/24 10:05:06;;;;;;;2.37;1.80;;;;;;;4.98;72.97;100363.73;1808773;77;21029;-56
2022/02/24 10:07:40;;;;;;;2.70;2.37;;;;;;;5.00;72.85;100369.05;1812357;77;20982;-53
2022/02/24 10:10:33;;;;;;;2.37;2.10;;;;;;;5.05;72.67;100368.52;1814709;77;22309;-53
2022/02/24 10:13:13;;;;;;;4.80;2.23;;;;;;;5.05;72.25;100364.06;1807592;77;21230;-54
2022/02/24 10:15:55;;;;;;;2.13;1.70;;;;;;;5.01;72.13;100370.38;1805117;77;22149;-56
2022/02/24 10:18:26;;;;;;;2.70;1.90;;;;;;;4.96;72.00;100368.20;1807255;77;21083;-55
2022/02/24 10:20:57;;;;;;;2.87;2.67;;;;;;;4.92;71.89;100363.39;1808766;77;20969;-54
2022/02/24 10:23:37;;;;;;;3.50;2.10;;;;;;;4.90;71.96;100365.19;1810736;77;21084;-56
2022/02/24 10:26:07;;;;;;;1.70;1.57;;;;;;;4.90;71.91;100373.65;1809464;77;21096;-56
2022/02/24 10:28:50;;;;;;;2.57;1.40;;;;;;;4.90;71.79;100365.64;1809290;77;21518;-56
2022/02/24 10:31:23;;;;;;;1.83;1.40;;;;;;;4.91;71.54;100366.08;1807804;77;21048;-56
2022/02/24 10:34:06;;;;;;;3.10;1.70;;;;;;;4.85;71.48;100356.36;1814949;77;21644;-57
2022/02/24 10:36:36;;;;;;;2.00;1.50;;;;;;;4.85;71.34;100364.81;1808988;77;22297;-56
2022/02/24 10:39:09;;;;;;;2.53;1.40;;;;;;;4.84;71.33;100363.08;1812229;77;20917;-55
2022/02/24 10:41:40;;;;;;;4.00;1.50;;;;;;;4.81;71.22;100361.33;1805618;77;21584;-54
2022/02/24 10:44:26;;;;;;;2.07;1.67;;;;;;;4.77;71.18;100358.72;1810070;78;21064;-55
2022/02/24 10:47:07;;;;;;;2.27;1.60;;;;;;;4.74;71.17;100361.45;1812047;77;21067;-56
2022/02/24 10:49:39;;;;;;;2.03;1.60;;;;;;;4.70;71.20;100362.38;1804816;77;21099;-55
2022/02/24 10:52:18;;;;;;;1.83;1.30;;;;;;;4.68;71.26;100365.06;1803088;77;21068;-55
2022/02/24 10:54:58;;;;;;;1.80;1.53;;;;;;;4.69;71.44;100356.17;1798772;77;21031;-56
2022/02/24 10:57:26;;;;;;;2.03;1.83;;;;;;;4.71;71.28;100362.37;1777816;77;20957;-56
2022/02/24 10:59:53;;;;;;;3.73;1.40;;;;;;;4.73;71.37;100359.69;1804038;77;20949;-54
2022/02/24 11:02:21;;;;;;;2.40;1.70;;;;;;;4.76;71.45;100363.65;1799018;77;22252;-54
2022/02/24 11:04:48;;;;;;;2.00;1.73;;;;;;;4.82;71.36;100364.88;1792781;77;21068;-54
2022/02/24 11:07:16;;;;;;;2.50;2.00;;;;;;;4.84;70.91;100368.41;1803757;77;21004;-55
2022/02/24 11:09:43;;;;;;;3.50;1.70;;;;;;;4.81;71.00;100366.66;1798870;77;20898;-54
2022/02/24 11:12:12;;;;;;;3.03;1.47;;;;;;;4.80;70.84;100362.68;1800767;77;21008;-55
2022/02/24 11:14:40;;;;;;;2.07;1.50;;;;;;;4.79;70.76;100366.25;1800305;77;21837;-54
2022/02/24 11:17:11;;;;;;;2.10;1.57;;;;;;;4.79;70.67;100364.91;1798064;77;21045;-55
2022/02/24 11:19:40;;;;;;;2.50;1.27;;;;;;;4.78;70.64;100364.48;1800464;77;21044;-54
2022/02/24 11:22:07;;;;;;;1.90;1.33;;;;;;;4.78;70.70;100363.15;1745023;80;21041;-56
2022/02/24 11:24:34;;;;;;;2.27;1.40;;;;;;;4.81;70.83;100364.00;1744145;80;20946;-54
2022/02/24 11:27:19;;;;;;;2.50;1.70;;;;;;;4.88;70.94;100360.78;1737621;80;21147;-56
2022/02/24 11:30:03;;;;;;;2.42;1.40;;;;;;;4.94;70.92;100354.00;1739574;80;20989;-56
2022/02/24 11:32:30;;;;;;;2.13;1.70;;;;;;;5.01;70.80;100351.69;1740679;80;21160;-55
2022/02/24 11:35:17;;;;;;;2.43;1.97;;;;;;;5.06;70.73;100351.16;1714209;81;21028;-56
2022/02/24 11:37:50;;;;;;;3.57;3.20;;;;;;;5.11;70.53;100357.73;1747244;80;21999;-53